This is the latest recevied weather packets stored in our database for station/object UA1CAS-13. If no packets are shown the sender has not sent any weather packets the latest 10 day(s).
| Time | Temp. | Humidity | Pressure | Rain* | Wind** | Luminosity | Snow |
|---|---|---|---|---|---|---|---|
| 1778004980 | 10.56° C | 51% | 1002 hPa | - | - | - | - |
| 1778004079 | 10.56° C | 49% | 1002 hPa | - | - | - | - |
| 1778003178 | 11.11° C | 51% | 1002 hPa | - | - | - | - |
| 1778002276 | 11.11° C | 64% | 1002 hPa | - | - | - | - |
| 1778001375 | 11.11° C | 62% | 1002 hPa | - | - | - | - |
| 1778000474 | 11.67° C | 61% | 1002 hPa | - | - | - | - |
| 1777999573 | 11.67° C | 61% | 1002 hPa | - | - | - | - |
| 1777998672 | 11.11° C | 59% | 1002 hPa | - | - | - | - |
| 1777997771 | 11.67° C | 58% | 1002 hPa | - | - | - | - |
| 1777996870 | 12.22° C | 57% | 1001 hPa | - | - | - | - |
| 1777995969 | 11.67° C | 56% | 1001 hPa | - | - | - | - |
| 1777995068 | 11.67° C | 55% | 1001 hPa | - | - | - | - |
| 1777994167 | 12.22° C | 55% | 1001 hPa | - | - | - | - |
| 1777993265 | 12.22° C | 56% | 1001 hPa | - | - | - | - |
| 1777992364 | 12.78° C | 55% | 1001 hPa | - | - | - | - |
| 1777991462 | 12.78° C | 59% | 1001 hPa | - | - | - | - |
| 1777990561 | 14.44° C | 54% | 1001 hPa | - | - | - | - |
| 1777989660 | 15° C | 55% | 1001 hPa | - | - | - | - |
| 1777988759 | 15° C | 55% | 1001 hPa | - | - | - | - |
| 1777987858 | 15.56° C | 54% | 1001 hPa | - | - | - | - |
| 1777986956 | 15.56° C | 53% | 1000 hPa | - | - | - | - |
| 1777986055 | 14.44° C | 63% | 1000 hPa | - | - | - | - |
| 1777985154 | 12.78° C | 69% | 1000 hPa | - | - | - | - |
| 1777984253 | 16.11° C | 52% | 999 hPa | - | - | - | - |
| 1777983352 | 17.78° C | 38% | 999 hPa | - | - | - | - |
* Rain since midnight (hover to see other rain measurements)
** Current wind speed in m/s (hover to see current wind gust speed)